createdAt,value
2018-07-15T00:00:20.588Z,5.10
2018-07-15T00:02:48.991Z,5.17
2018-07-15T00:05:17.363Z,4.83
2018-07-15T00:07:45.764Z,4.37
2018-07-15T00:10:14.156Z,3.90
2018-07-15T00:12:42.576Z,4.17
2018-07-15T00:15:10.968Z,4.30
2018-07-15T00:17:39.416Z,4.00
2018-07-15T00:20:07.854Z,4.30
2018-07-15T00:22:36.297Z,4.33
2018-07-15T00:25:04.704Z,4.60
2018-07-15T00:27:33.077Z,3.60
2018-07-15T00:30:01.448Z,4.73
2018-07-15T00:32:29.993Z,3.73
2018-07-15T00:34:58.392Z,4.30
2018-07-15T00:37:26.792Z,3.60
2018-07-15T00:39:55.165Z,3.83
2018-07-15T00:42:23.572Z,4.03
2018-07-15T00:44:51.947Z,3.70
2018-07-15T00:47:20.520Z,4.60
2018-07-15T00:49:48.877Z,4.37
2018-07-15T00:52:17.281Z,4.97
2018-07-15T00:54:45.797Z,4.60
2018-07-15T00:57:14.237Z,4.30
2018-07-15T00:59:42.609Z,4.80
2018-07-15T01:02:11.026Z,4.20
2018-07-15T01:04:39.427Z,4.57
2018-07-15T01:07:07.936Z,3.93
2018-07-15T01:09:36.370Z,5.07
2018-07-15T01:12:04.776Z,4.70
2018-07-15T01:14:33.949Z,4.30
2018-07-15T01:17:02.343Z,4.50
2018-07-15T01:19:30.724Z,4.53
2018-07-15T01:21:59.121Z,4.30
2018-07-15T01:24:27.476Z,4.27
2018-07-15T01:26:55.866Z,4.63
2018-07-15T01:29:24.233Z,5.33
2018-07-15T01:31:52.755Z,4.50
2018-07-15T01:34:21.124Z,4.63
2018-07-15T01:36:49.500Z,4.13
2018-07-15T01:39:18.139Z,5.00
2018-07-15T01:41:46.530Z,5.00
2018-07-15T01:44:14.940Z,4.70
2018-07-15T01:46:43.429Z,4.33
2018-07-15T01:49:11.807Z,4.90
2018-07-15T01:51:40.167Z,4.87
2018-07-15T01:54:08.588Z,5.70
2018-07-15T01:56:36.997Z,5.20
2018-07-15T01:59:05.480Z,4.60
2018-07-15T02:01:33.566Z,4.90
2018-07-15T02:04:01.948Z,4.17
2018-07-15T02:06:30.329Z,4.13
2018-07-15T02:08:58.716Z,4.90
2018-07-15T02:11:27.051Z,4.73
2018-07-15T02:13:55.422Z,4.60
2018-07-15T02:16:23.775Z,5.30
2018-07-15T02:18:52.190Z,4.70
2018-07-15T02:21:20.564Z,4.90
2018-07-15T02:23:48.952Z,5.43
2018-07-15T02:26:17.352Z,5.00
2018-07-15T02:28:45.799Z,5.77
2018-07-15T02:31:14.212Z,5.23
2018-07-15T02:33:42.616Z,4.73
2018-07-15T02:36:11.005Z,4.70
2018-07-15T02:38:39.404Z,4.70
2018-07-15T02:41:07.780Z,4.90
2018-07-15T02:43:36.185Z,5.13
2018-07-15T02:46:04.577Z,5.87
2018-07-15T02:48:32.948Z,4.37
2018-07-15T02:51:01.324Z,5.03
2018-07-15T02:53:29.717Z,5.00
2018-07-15T02:55:58.344Z,4.43
2018-07-15T02:58:26.713Z,4.53
2018-07-15T03:00:55.108Z,5.03
2018-07-15T03:03:23.496Z,5.40
2018-07-15T03:05:51.872Z,5.27
2018-07-15T03:08:20.255Z,4.67
2018-07-15T03:10:48.624Z,5.60
2018-07-15T03:13:17.317Z,4.80
2018-07-15T03:15:45.769Z,4.67
2018-07-15T03:18:14.197Z,5.27
2018-07-15T03:20:42.568Z,4.60
2018-07-15T03:23:11.000Z,5.40
2018-07-15T03:25:39.355Z,4.87
2018-07-15T03:28:07.815Z,5.30
2018-07-15T03:30:36.169Z,5.00
2018-07-15T03:33:04.552Z,6.00
2018-07-15T03:35:32.964Z,5.40
2018-07-15T03:38:01.348Z,5.87
2018-07-15T03:40:29.759Z,5.90
2018-07-15T03:42:58.133Z,6.27
2018-07-15T03:45:26.524Z,6.17
2018-07-15T03:47:54.997Z,6.30
2018-07-15T03:50:23.385Z,7.00
2018-07-15T03:52:51.904Z,6.50
2018-07-15T03:55:20.349Z,7.93
2018-07-15T03:57:48.747Z,6.03
2018-07-15T04:00:17.198Z,5.63
2018-07-15T04:02:45.727Z,6.27
2018-07-15T04:05:14.145Z,6.40
2018-07-15T04:07:42.495Z,6.27
2018-07-15T04:10:10.868Z,5.60
2018-07-15T04:12:39.371Z,5.77
2018-07-15T04:15:07.848Z,5.93
2018-07-15T04:17:36.216Z,6.60
2018-07-15T04:20:04.728Z,5.87
2018-07-15T04:22:33.140Z,5.47
2018-07-15T04:25:01.536Z,5.50
2018-07-15T04:27:29.910Z,5.40
2018-07-15T04:29:58.344Z,5.70
2018-07-15T04:32:26.722Z,5.70
2018-07-15T04:34:55.169Z,4.83
2018-07-15T04:37:23.564Z,5.57
2018-07-15T04:39:51.970Z,5.80
2018-07-15T04:42:20.393Z,6.30
2018-07-15T04:44:48.839Z,6.20
2018-07-15T04:47:17.248Z,6.40
2018-07-15T04:49:45.661Z,5.90
2018-07-15T04:52:14.083Z,5.37
2018-07-15T04:54:42.490Z,7.00
2018-07-15T04:57:10.842Z,5.60
2018-07-15T04:59:39.313Z,6.03
2018-07-15T05:02:07.814Z,6.47
2018-07-15T05:04:36.185Z,7.13
2018-07-15T05:07:04.609Z,6.33
2018-07-15T05:09:33.055Z,6.70
2018-07-15T05:12:01.464Z,7.20
2018-07-15T05:14:29.820Z,6.33
2018-07-15T05:16:58.182Z,6.30
2018-07-15T05:19:26.552Z,5.40
2018-07-15T05:21:54.908Z,4.83
2018-07-15T05:24:23.301Z,3.93
2018-07-15T05:26:51.495Z,5.30
2018-07-15T05:29:20.050Z,4.60
2018-07-15T05:31:48.648Z,3.80
2018-07-15T05:34:17.089Z,3.83
2018-07-15T05:36:45.637Z,3.73
2018-07-15T05:39:14.029Z,3.10
2018-07-15T05:41:42.420Z,3.70
2018-07-15T05:44:10.845Z,3.30
2018-07-15T05:46:38.927Z,3.77
2018-07-15T05:49:07.605Z,3.60
2018-07-15T05:51:36.028Z,3.80
2018-07-15T05:54:04.485Z,3.43
2018-07-15T05:56:32.875Z,3.40
2018-07-15T05:59:01.255Z,3.20
2018-07-15T06:01:29.681Z,3.58
2018-07-15T06:03:58.039Z,3.33
2018-07-15T06:06:26.453Z,3.30
2018-07-15T06:08:54.840Z,3.40
2018-07-15T06:11:23.401Z,3.20
2018-07-15T06:13:51.747Z,3.05
2018-07-15T06:16:20.132Z,3.00
2018-07-15T06:18:48.518Z,3.02
2018-07-15T06:21:16.933Z,2.70
2018-07-15T06:23:45.347Z,3.55
2018-07-15T06:26:13.907Z,2.80
2018-07-15T06:28:41.976Z,3.30
2018-07-15T06:31:10.367Z,3.37
2018-07-15T06:33:38.796Z,2.85
2018-07-15T06:36:07.159Z,2.90
2018-07-15T06:38:35.512Z,2.52
2018-07-15T06:41:03.917Z,2.80
2018-07-15T06:43:32.307Z,2.65
2018-07-15T06:46:00.685Z,2.20
2018-07-15T06:48:29.040Z,2.33
2018-07-15T06:50:57.437Z,2.20
2018-07-15T06:53:25.832Z,2.00
2018-07-15T06:55:54.286Z,2.55
2018-07-15T06:58:22.735Z,2.10
2018-07-15T07:00:51.143Z,1.60
2018-07-15T07:03:19.483Z,1.92
2018-07-15T07:05:47.987Z,1.80
2018-07-15T07:08:16.365Z,1.92
2018-07-15T07:10:44.753Z,1.77
2018-07-15T07:13:13.108Z,1.47
2018-07-15T07:15:41.483Z,1.60
2018-07-15T07:18:09.828Z,1.67
2018-07-15T07:20:38.354Z,1.40
2018-07-15T07:23:06.934Z,1.47
2018-07-15T07:25:35.596Z,1.50
2018-07-15T07:28:03.940Z,1.45
2018-07-15T07:30:32.339Z,1.20
2018-07-15T07:33:00.782Z,1.35
2018-07-15T07:35:29.632Z,1.30
2018-07-15T07:37:57.933Z,1.47
2018-07-15T07:40:26.348Z,1.02
2018-07-15T07:42:54.742Z,1.05
2018-07-15T07:45:23.291Z,1.00
2018-07-15T07:47:51.661Z,1.07
2018-07-15T07:50:19.799Z,0.88
2018-07-15T07:52:48.221Z,1.15
2018-07-15T07:55:16.674Z,0.80
2018-07-15T07:57:45.120Z,0.80
2018-07-15T08:00:13.543Z,0.90
2018-07-15T08:02:41.989Z,0.78
2018-07-15T08:05:10.349Z,0.70
2018-07-15T08:07:38.783Z,0.88
2018-07-15T08:10:07.130Z,0.70
2018-07-15T08:12:35.548Z,0.80
2018-07-15T08:15:04.134Z,0.80
2018-07-15T08:17:32.689Z,0.70
2018-07-15T08:20:01.103Z,0.70
2018-07-15T08:22:29.505Z,0.70
2018-07-15T08:24:58.129Z,0.78
2018-07-15T08:27:26.511Z,0.70
2018-07-15T08:30:06.312Z,0.70
2018-07-15T08:32:34.698Z,0.70
2018-07-15T08:35:03.129Z,0.70
2018-07-15T08:37:31.526Z,0.60
2018-07-15T08:39:59.921Z,0.50
2018-07-15T08:42:28.287Z,0.60
2018-07-15T08:44:56.643Z,0.70
2018-07-15T08:47:25.032Z,0.70
2018-07-15T08:49:53.401Z,0.60
2018-07-15T08:52:21.786Z,0.60
2018-07-15T08:54:50.227Z,0.62
2018-07-15T08:57:18.611Z,0.57
2018-07-15T08:59:47.299Z,0.60
2018-07-15T09:02:15.690Z,0.75
2018-07-15T09:04:44.056Z,0.65
2018-07-15T09:07:12.572Z,0.60
2018-07-15T09:09:40.993Z,0.60
2018-07-15T09:12:09.448Z,0.60
2018-07-15T09:14:38.101Z,0.50
2018-07-15T09:17:06.480Z,0.55
2018-07-15T09:19:34.963Z,0.60
2018-07-15T09:22:03.357Z,0.50
2018-07-15T09:24:32.432Z,0.50
2018-07-15T09:27:00.841Z,0.50
2018-07-15T09:29:29.238Z,0.60
2018-07-15T09:31:57.621Z,0.50
2018-07-15T09:34:26.093Z,0.60
2018-07-15T09:36:54.595Z,0.50
2018-07-15T09:39:23.037Z,0.45
2018-07-15T09:41:51.467Z,0.60
2018-07-15T09:44:19.869Z,0.53
2018-07-15T09:46:48.238Z,0.60
2018-07-15T09:49:16.673Z,0.65
2018-07-15T09:51:45.129Z,0.80
2018-07-15T09:54:13.532Z,0.80
2018-07-15T09:56:41.904Z,0.97
2018-07-15T09:59:10.267Z,1.20
2018-07-15T10:01:38.630Z,1.27
2018-07-15T10:04:07.059Z,1.90
2018-07-15T10:06:35.497Z,1.70
2018-07-15T10:09:04.942Z,1.60
2018-07-15T10:11:33.356Z,1.80
2018-07-15T10:14:01.729Z,1.60
2018-07-15T10:16:30.115Z,1.70
2018-07-15T10:18:58.552Z,1.97
2018-07-15T10:21:26.977Z,2.20
2018-07-15T10:23:55.343Z,1.87
2018-07-15T10:26:23.758Z,2.33
2018-07-15T10:28:52.183Z,2.27
2018-07-15T10:31:20.551Z,2.30
2018-07-15T10:33:48.945Z,3.17
2018-07-15T10:36:17.356Z,2.60
2018-07-15T10:38:45.773Z,2.90
2018-07-15T10:41:14.196Z,2.63
2018-07-15T10:43:42.608Z,2.53
2018-07-15T10:46:10.977Z,2.80
2018-07-15T10:48:39.393Z,2.40
2018-07-15T10:51:07.735Z,2.40
2018-07-15T10:53:36.164Z,2.63
2018-07-15T10:56:04.621Z,2.53
2018-07-15T10:58:33.004Z,2.57
2018-07-15T11:01:01.626Z,2.53
2018-07-15T11:03:30.388Z,2.47
2018-07-15T11:05:58.916Z,2.80
2018-07-15T11:08:27.376Z,2.57
2018-07-15T11:10:55.741Z,2.40
2018-07-15T11:13:24.162Z,2.63
2018-07-15T11:15:52.664Z,5.47
2018-07-15T11:18:21.158Z,2.77
2018-07-15T11:20:49.561Z,2.30
2018-07-15T11:23:18.090Z,2.40
2018-07-15T11:25:46.477Z,2.70
2018-07-15T11:28:14.957Z,2.60
2018-07-15T11:30:43.475Z,2.63
2018-07-15T11:33:11.856Z,2.80
2018-07-15T11:35:40.244Z,2.30
2018-07-15T11:38:08.750Z,2.17
2018-07-15T11:40:37.576Z,2.70
2018-07-15T11:43:05.936Z,2.47
2018-07-15T11:45:34.356Z,2.60
2018-07-15T11:48:02.809Z,2.20
2018-07-15T11:50:31.240Z,2.60
2018-07-15T11:53:06.390Z,2.27
2018-07-15T11:55:34.793Z,2.40
2018-07-15T11:58:02.923Z,2.23
2018-07-15T12:00:31.390Z,2.43
2018-07-15T12:03:00.310Z,3.03
2018-07-15T12:05:28.764Z,2.63
2018-07-15T12:07:57.131Z,2.40
2018-07-15T12:10:25.572Z,2.07
2018-07-15T12:12:53.922Z,2.17
2018-07-15T12:15:22.294Z,2.03
2018-07-15T12:17:50.677Z,2.60
2018-07-15T12:20:19.074Z,2.47
2018-07-15T12:22:47.437Z,11.13
2018-07-15T12:25:15.825Z,29.87
2018-07-15T12:27:44.220Z,33.30
2018-07-15T12:30:12.684Z,40.27
2018-07-15T12:32:41.064Z,5.77
2018-07-15T12:35:09.443Z,2.00
2018-07-15T12:37:37.788Z,2.40
2018-07-15T12:40:06.344Z,2.17
2018-07-15T12:42:34.671Z,2.60
2018-07-15T12:45:03.048Z,2.27
2018-07-15T12:47:31.506Z,10.00
2018-07-15T12:49:59.952Z,2.57
2018-07-15T12:52:28.385Z,2.30
2018-07-15T12:54:56.852Z,3.20
2018-07-15T12:57:25.309Z,2.90
2018-07-15T12:59:53.672Z,2.17
2018-07-15T13:02:22.056Z,2.60
2018-07-15T13:04:50.445Z,2.43
2018-07-15T13:07:18.987Z,1.70
2018-07-15T13:09:47.483Z,2.40
2018-07-15T13:12:15.888Z,2.10
2018-07-15T13:14:44.359Z,2.30
2018-07-15T13:17:12.806Z,1.77
2018-07-15T13:19:41.228Z,2.00
2018-07-15T13:22:09.622Z,2.50
2018-07-15T13:24:38.189Z,1.83
2018-07-15T13:27:06.660Z,2.47
2018-07-15T13:29:35.102Z,2.50
2018-07-15T13:32:03.484Z,2.00
2018-07-15T13:34:31.872Z,1.87
2018-07-15T13:37:00.367Z,1.70
2018-07-15T13:39:28.863Z,1.80
2018-07-15T13:41:57.288Z,1.80
2018-07-15T13:44:25.728Z,1.83
2018-07-15T13:46:54.256Z,1.63
2018-07-15T13:49:22.677Z,2.20
2018-07-15T13:51:51.190Z,2.23
2018-07-15T13:54:19.822Z,2.03
2018-07-15T13:56:48.513Z,2.27
2018-07-15T13:59:16.976Z,2.10
2018-07-15T14:01:45.390Z,2.47
2018-07-15T14:04:13.974Z,2.07
2018-07-15T14:06:42.309Z,2.30
2018-07-15T14:09:10.779Z,2.23
2018-07-15T14:11:39.306Z,2.30
2018-07-15T14:14:07.700Z,1.80
2018-07-15T14:16:36.173Z,2.10
2018-07-15T14:19:04.774Z,2.00
2018-07-15T14:21:33.242Z,1.97
2018-07-15T14:24:01.565Z,2.00
2018-07-15T14:26:30.000Z,1.80
2018-07-15T14:28:58.450Z,2.37
2018-07-15T14:31:26.856Z,1.90
2018-07-15T14:33:54.963Z,1.90
2018-07-15T14:36:23.381Z,1.93
2018-07-15T14:38:51.865Z,1.93
2018-07-15T14:41:20.426Z,2.03
2018-07-15T14:43:48.866Z,1.80
2018-07-15T14:46:17.344Z,2.03
2018-07-15T14:48:46.050Z,1.70
2018-07-15T14:51:14.536Z,1.83
2018-07-15T14:53:42.929Z,1.93
2018-07-15T14:56:11.676Z,1.80
2018-07-15T14:58:40.172Z,2.30
2018-07-15T15:01:08.634Z,1.80
2018-07-15T15:03:37.063Z,2.07
2018-07-15T15:06:05.606Z,1.80
2018-07-15T15:08:34.217Z,2.20
2018-07-15T15:11:02.701Z,2.10
2018-07-15T15:13:31.146Z,1.47
2018-07-15T15:15:59.590Z,1.60
2018-07-15T15:18:28.100Z,1.70
2018-07-15T15:20:56.492Z,2.30
2018-07-15T15:23:25.005Z,1.60
2018-07-15T15:25:53.471Z,1.80
2018-07-15T15:28:21.831Z,1.57
2018-07-15T15:30:50.217Z,1.57
2018-07-15T15:33:18.695Z,1.80
2018-07-15T15:35:47.176Z,2.20
2018-07-15T15:38:15.715Z,1.60
2018-07-15T15:40:44.164Z,1.60
2018-07-15T15:43:12.684Z,1.37
2018-07-15T15:45:42.438Z,1.60
2018-07-15T15:48:10.821Z,1.67
2018-07-15T15:50:39.229Z,1.80
2018-07-15T15:53:07.680Z,1.80
2018-07-15T15:55:36.141Z,2.47
2018-07-15T15:58:04.831Z,1.77
2018-07-15T16:00:33.364Z,1.87
2018-07-15T16:03:01.774Z,1.80
2018-07-15T16:05:30.160Z,2.47
2018-07-15T16:07:58.591Z,1.97
2018-07-15T16:10:27.020Z,2.40
2018-07-15T16:12:55.483Z,2.30
2018-07-15T16:15:23.971Z,2.20
2018-07-15T16:17:52.366Z,2.10
2018-07-15T16:20:20.810Z,1.90
2018-07-15T16:22:49.753Z,1.70
2018-07-15T16:25:19.076Z,1.50
2018-07-15T16:27:47.465Z,1.50
2018-07-15T16:30:15.945Z,1.50
2018-07-15T16:32:44.327Z,1.40
2018-07-15T16:35:12.703Z,1.50
2018-07-15T16:37:41.104Z,1.67
2018-07-15T16:40:09.540Z,1.60
2018-07-15T16:42:37.936Z,1.50
2018-07-15T16:45:07.368Z,1.43
2018-07-15T16:47:36.405Z,1.50
2018-07-15T16:50:04.820Z,1.50
2018-07-15T16:52:33.213Z,1.27
2018-07-15T16:55:01.652Z,1.33
2018-07-15T16:57:31.440Z,1.40
2018-07-15T16:59:59.809Z,1.43
2018-07-15T17:02:28.173Z,1.37
2018-07-15T17:04:56.569Z,1.10
2018-07-15T17:07:25.007Z,1.30
2018-07-15T17:09:53.368Z,1.30
2018-07-15T17:12:23.224Z,1.40
2018-07-15T17:14:51.609Z,1.13
2018-07-15T17:17:20.001Z,1.40
2018-07-15T17:19:48.429Z,1.20
2018-07-15T17:22:16.809Z,1.20
2018-07-15T17:24:45.447Z,1.57
2018-07-15T17:27:14.019Z,1.33
2018-07-15T17:29:42.653Z,1.60
2018-07-15T17:32:11.128Z,1.63
2018-07-15T17:34:39.762Z,1.20
2018-07-15T17:37:08.281Z,1.40
2018-07-15T17:39:36.717Z,1.50
2018-07-15T17:42:05.161Z,1.30
2018-07-15T17:44:33.668Z,1.33
2018-07-15T17:47:02.094Z,1.90
2018-07-15T17:49:30.476Z,1.40
2018-07-15T17:51:58.894Z,1.30
2018-07-15T17:54:27.433Z,1.43
2018-07-15T17:56:55.837Z,1.30
2018-07-15T17:59:24.284Z,1.30
2018-07-15T18:01:52.760Z,1.37
2018-07-15T18:04:21.420Z,1.50
2018-07-15T18:06:49.904Z,1.70
2018-07-15T18:09:18.341Z,1.60
2018-07-15T18:11:46.717Z,1.70
2018-07-15T18:14:15.274Z,1.30
2018-07-15T18:16:43.840Z,1.50
2018-07-15T18:19:12.601Z,1.77
2018-07-15T18:21:41.037Z,1.27
2018-07-15T18:24:09.597Z,1.50
2018-07-15T18:26:38.009Z,1.20
2018-07-15T18:29:06.439Z,1.30
2018-07-15T18:31:34.824Z,1.43
2018-07-15T18:34:03.243Z,1.40
2018-07-15T18:36:31.813Z,1.23
2018-07-15T18:39:00.339Z,1.50
2018-07-15T18:41:28.864Z,1.43
2018-07-15T18:43:57.256Z,1.40
2018-07-15T18:46:25.648Z,1.50
2018-07-15T18:48:54.153Z,1.43
2018-07-15T18:51:22.733Z,1.47
2018-07-15T18:53:51.139Z,1.50
2018-07-15T18:56:19.587Z,1.27
2018-07-15T18:58:48.093Z,1.40
2018-07-15T19:01:16.480Z,1.70
2018-07-15T19:03:45.065Z,1.40
2018-07-15T19:06:13.425Z,1.60
2018-07-15T19:08:41.857Z,1.40
2018-07-15T19:11:10.429Z,1.70
2018-07-15T19:13:38.839Z,1.47
2018-07-15T19:16:07.337Z,1.50
2018-07-15T19:18:35.822Z,1.43
2018-07-15T19:21:04.366Z,1.40
2018-07-15T19:23:33.015Z,1.37
2018-07-15T19:26:01.388Z,1.50
2018-07-15T19:28:29.783Z,1.53
2018-07-15T19:30:58.182Z,1.40
2018-07-15T19:33:26.594Z,1.30
2018-07-15T19:35:55.026Z,1.77
2018-07-15T19:38:23.397Z,1.40
2018-07-15T19:40:51.479Z,1.60
2018-07-15T19:43:19.849Z,1.27
2018-07-15T19:45:48.208Z,1.33
2018-07-15T19:48:16.557Z,1.73
2018-07-15T19:50:44.917Z,1.70
2018-07-15T19:53:13.304Z,1.53
2018-07-15T19:55:41.720Z,1.67
2018-07-15T19:58:10.122Z,1.40
2018-07-15T20:00:38.193Z,1.40
2018-07-15T20:03:06.632Z,1.30
2018-07-15T20:05:35.037Z,1.50
2018-07-15T20:08:03.404Z,1.70
2018-07-15T20:10:31.793Z,1.30
2018-07-15T20:13:00.200Z,1.40
2018-07-15T20:15:28.545Z,1.80
2018-07-15T20:17:57.311Z,1.60
2018-07-15T20:20:25.678Z,1.80
2018-07-15T20:22:54.049Z,1.40
2018-07-15T20:25:22.455Z,1.67
2018-07-15T20:27:50.857Z,1.40
2018-07-15T20:30:19.221Z,1.57
2018-07-15T20:32:47.569Z,1.70
2018-07-15T20:35:15.967Z,1.50
2018-07-15T20:37:44.357Z,1.77
2018-07-15T20:40:12.749Z,1.73
2018-07-15T20:42:41.120Z,1.60
2018-07-15T20:45:09.588Z,1.70
2018-07-15T20:47:37.961Z,1.40
2018-07-15T20:50:06.332Z,1.60
2018-07-15T20:52:34.720Z,1.40
2018-07-15T20:55:04.018Z,2.43
2018-07-15T20:57:32.364Z,1.70
2018-07-15T21:00:02.268Z,1.43
2018-07-15T21:02:30.678Z,1.60
2018-07-15T21:04:59.012Z,1.80
2018-07-15T21:07:29.533Z,1.47
2018-07-15T21:09:57.916Z,1.60
2018-07-15T21:12:26.268Z,1.70
2018-07-15T21:14:55.075Z,1.60
2018-07-15T21:17:23.518Z,1.80
2018-07-15T21:19:51.884Z,1.77
2018-07-15T21:22:20.265Z,1.90
2018-07-15T21:24:48.725Z,1.83
2018-07-15T21:27:17.158Z,1.87
2018-07-15T21:29:45.605Z,2.37
2018-07-15T21:32:14.075Z,1.83
2018-07-15T21:34:42.423Z,2.60
2018-07-15T21:37:10.829Z,2.07
2018-07-15T21:39:39.237Z,2.20
2018-07-15T21:42:07.639Z,2.83
2018-07-15T21:44:36.025Z,2.40
2018-07-15T21:47:04.466Z,2.30
2018-07-15T21:49:33.693Z,2.50
2018-07-15T21:52:02.197Z,2.37
2018-07-15T21:54:30.749Z,2.30
2018-07-15T21:56:59.222Z,2.40
2018-07-15T21:59:27.640Z,2.50
2018-07-15T22:01:56.012Z,2.53
2018-07-15T22:04:24.488Z,2.70
2018-07-15T22:07:04.082Z,2.67
2018-07-15T22:09:54.268Z,2.30
2018-07-15T22:12:22.772Z,2.50
2018-07-15T22:14:51.143Z,2.03
2018-07-15T22:17:19.670Z,2.40
2018-07-15T22:19:48.038Z,2.80
2018-07-15T22:22:16.867Z,2.67
2018-07-15T22:24:45.266Z,2.70
2018-07-15T22:27:13.696Z,2.40
2018-07-15T22:29:42.053Z,2.20
2018-07-15T22:32:10.817Z,2.77
2018-07-15T22:34:39.165Z,2.03
2018-07-15T22:37:07.676Z,1.97
2018-07-15T22:39:36.033Z,2.00
2018-07-15T22:42:06.126Z,2.37
2018-07-15T22:44:34.579Z,2.50
2018-07-15T22:47:02.996Z,2.03
2018-07-15T22:49:31.399Z,2.03
2018-07-15T22:51:59.788Z,1.93
2018-07-15T22:54:28.164Z,2.23
2018-07-15T22:56:56.569Z,2.00
2018-07-15T22:59:24.913Z,2.20
2018-07-15T23:01:53.324Z,2.20
2018-07-15T23:04:33.597Z,3.03
2018-07-15T23:07:02.204Z,2.30
2018-07-15T23:09:30.595Z,2.20
2018-07-15T23:11:58.947Z,2.13
2018-07-15T23:14:27.329Z,2.20
2018-07-15T23:16:55.693Z,2.60
2018-07-15T23:19:24.049Z,2.57
2018-07-15T23:21:52.437Z,2.50
2018-07-15T23:24:20.799Z,2.40
2018-07-15T23:26:49.178Z,2.40
2018-07-15T23:29:17.608Z,2.73
2018-07-15T23:31:45.991Z,2.47
2018-07-15T23:34:14.401Z,2.60
2018-07-15T23:36:43.247Z,2.43
2018-07-15T23:39:11.729Z,2.60
2018-07-15T23:41:40.171Z,2.23
2018-07-15T23:44:08.638Z,2.47
2018-07-15T23:46:37.021Z,2.53
2018-07-15T23:49:05.405Z,3.03
2018-07-15T23:51:34.721Z,2.63
2018-07-15T23:54:03.106Z,2.40
2018-07-15T23:56:31.520Z,2.53
2018-07-15T23:58:59.897Z,2.77
